Portada
METAR-TAF:

METAR-TAF

Aeropuertos :

Alexandria, Luisiana, Estados Unidos

latitud: 31-23-42N, longitud: 092-17-25W, altitud: 34 m

Observación

El informe se hizo hace 27 minutos, a las 17:53 UTC
Viento 3 kt del norte-noreste
Temperatura 12°C
Humedad 82%
Presión 1018 hPa
Visibilidad: 16.1 km
Cielo cubierto a una altura de 1200 ft

METAR: KESF 271753Z AUTO 02003KT 10SM OVC012 12/09 A3006 RMK AO2 SLP179 T01220094 10122 20106 58004

Hora: 12:20 (18:20 UTC)


TAF: falta

Observaciones y pronósticos meteorológicos de más de 4000 aeropuertos (mensajes METAR y TAF).

Los puntos amarillos y rojos representan las estaciones disponibles.

Ponga el ratón en el punto deseado para ver el nombre de la estación.

Haga clic para ver las observaciones y los pronósticos meteorológicos.

Para cambiar el mapa : haga clic en los botones verdes con una cruz de color negro para hacer un zoom, en el botón verde con un guión para alejar o en las flechas verdes para mapas adyacentes.


METAR-TAF: